Auriesville, NY

4:51 AM EDT on July 25, 2016 (GMT -0400)
rural | | Change Station

Elev 289 ft 42.94 °N, 74.28 °W | Updated 4 minutes ago

Partly Cloudy
Partly Cloudy
65.1 °F
Feels Like 65.1 °F
N
0.0
Wind Variable Wind from SW

Today
High -- | Low -- °F
--% Chance of Precip.
Yesterday
High -- | Low -- °F
Precip. -- in
Pressure 29.93 in
Visibility 10.0 miles
Clouds Few 18000 ft
Dew Point 63 °F
Humidity 93%
Rainfall 0.00 in
Snow Depth Not available.
5:41 AM 8:25 PM
Waning Gibbous, 68% visible
METAR KALB 250751Z 00000KT 10SM FEW180 20/18 A2993 RMK AO2 SLP134 T02000178
Pressure 29.93 in
Visibility 10.0 miles
Clouds Few 18000 ft
Dew Point 63 °F
Humidity 93%
Rainfall 0.00 in
Snow Depth Not available.
5:41 AM 8:25 PM
Waning Gibbous, 68% visible
METAR KALB 250751Z 00000KT 10SM FEW180 20/18 A2993 RMK AO2 SLP134 T02000178

10-Day Weather Forecast

Almanac

Astronomy

Jul. 25, 2016 Rise Set
Actual Time
Civil Twilight
Nautical Twilight
Astronomical Twilight
Moon
Length of Visible Light
Length of Day
Tomorrow will be .
, % of the Moon is Illuminated

Today's Extremes

State Highs State Lows

Community

WunderPhotos

Upload Photos

1,927,274 photos uploaded!

WunderBlog® & News

Nearby

Air Quality

  Air Quality AQ Index Pollutant
Not available.

Snow Depth

Station Depth Elevation

Earthquake Activity

City Distance Mag. Time & Date
Minimum magnitude displayed is 2.5.

Coastal Water Temperatures

Place Temperature

Stations

Nearby Weather Stations

Station Location Temp. Windchill Dew Point Humidity Wind Precip. Elev Updated Type
                   

Watches & Warnings

There are currently no watches in effect.